sensor_id;sensor_type;location;lat;lon;timestamp;P1;durP1;ratioP1;P2;durP2;ratioP2
43620;SDS011;29213;50.770;7.298;2022-12-07T00:02:25;17.08;;;12.05;;
43620;SDS011;29213;50.770;7.298;2022-12-07T00:04:50;17.95;;;13.07;;
43620;SDS011;29213;50.770;7.298;2022-12-07T00:07:15;19.60;;;13.20;;
43620;SDS011;29213;50.770;7.298;2022-12-07T00:09:41;18.23;;;13.15;;
43620;SDS011;29213;50.770;7.298;2022-12-07T00:12:06;20.02;;;13.55;;
43620;SDS011;29213;50.770;7.298;2022-12-07T00:14:32;16.42;;;12.82;;
43620;SDS011;29213;50.770;7.298;2022-12-07T00:16:57;17.45;;;12.98;;
43620;SDS011;29213;50.770;7.298;2022-12-07T00:19:22;17.90;;;13.00;;
43620;SDS011;29213;50.770;7.298;2022-12-07T00:21:48;17.08;;;13.45;;
43620;SDS011;29213;50.770;7.298;2022-12-07T00:24:13;20.42;;;14.88;;
43620;SDS011;29213;50.770;7.298;2022-12-07T00:26:39;18.77;;;13.70;;
43620;SDS011;29213;50.770;7.298;2022-12-07T00:29:07;21.48;;;15.18;;
43620;SDS011;29213;50.770;7.298;2022-12-07T00:31:39;19.33;;;14.32;;
43620;SDS011;29213;50.770;7.298;2022-12-07T00:34:05;22.17;;;15.30;;
43620;SDS011;29213;50.770;7.298;2022-12-07T00:36:31;18.58;;;13.73;;
43620;SDS011;29213;50.770;7.298;2022-12-07T00:38:58;19.15;;;14.90;;
43620;SDS011;29213;50.770;7.298;2022-12-07T00:41:25;22.85;;;14.90;;
43620;SDS011;29213;50.770;7.298;2022-12-07T00:43:52;19.08;;;14.68;;
43620;SDS011;29213;50.770;7.298;2022-12-07T00:46:18;20.63;;;14.95;;
43620;SDS011;29213;50.770;7.298;2022-12-07T00:48:45;21.27;;;15.55;;
43620;SDS011;29213;50.770;7.298;2022-12-07T00:51:12;21.20;;;15.32;;
43620;SDS011;29213;50.770;7.298;2022-12-07T00:53:39;23.20;;;16.27;;
43620;SDS011;29213;50.770;7.298;2022-12-07T00:56:05;21.77;;;15.02;;
43620;SDS011;29213;50.770;7.298;2022-12-07T00:58:31;18.90;;;14.75;;
43620;SDS011;29213;50.770;7.298;2022-12-07T01:00:59;20.85;;;16.13;;
43620;SDS011;29213;50.770;7.298;2022-12-07T01:03:26;22.40;;;16.70;;
43620;SDS011;29213;50.770;7.298;2022-12-07T01:05:52;20.90;;;15.75;;
43620;SDS011;29213;50.770;7.298;2022-12-07T01:08:18;23.52;;;16.73;;
43620;SDS011;29213;50.770;7.298;2022-12-07T01:10:45;23.38;;;16.40;;
43620;SDS011;29213;50.770;7.298;2022-12-07T01:13:10;23.05;;;16.48;;
43620;SDS011;29213;50.770;7.298;2022-12-07T01:15:40;21.38;;;15.88;;
43620;SDS011;29213;50.770;7.298;2022-12-07T01:18:06;22.92;;;16.25;;
43620;SDS011;29213;50.770;7.298;2022-12-07T01:20:31;22.10;;;16.02;;
43620;SDS011;29213;50.770;7.298;2022-12-07T01:22:57;22.73;;;16.20;;
43620;SDS011;29213;50.770;7.298;2022-12-07T01:25:22;21.27;;;16.23;;
43620;SDS011;29213;50.770;7.298;2022-12-07T01:27:47;24.75;;;17.63;;
43620;SDS011;29213;50.770;7.298;2022-12-07T01:30:13;21.80;;;16.45;;
43620;SDS011;29213;50.770;7.298;2022-12-07T01:32:39;20.83;;;16.63;;
43620;SDS011;29213;50.770;7.298;2022-12-07T01:35:04;23.17;;;17.52;;
43620;SDS011;29213;50.770;7.298;2022-12-07T01:37:34;23.60;;;17.08;;
43620;SDS011;29213;50.770;7.298;2022-12-07T01:40:01;22.60;;;16.90;;
43620;SDS011;29213;50.770;7.298;2022-12-07T01:42:27;23.40;;;18.25;;
43620;SDS011;29213;50.770;7.298;2022-12-07T01:47:44;24.40;;;17.55;;
43620;SDS011;29213;50.770;7.298;2022-12-07T01:50:14;21.75;;;17.55;;
43620;SDS011;29213;50.770;7.298;2022-12-07T01:52:39;25.20;;;18.52;;
43620;SDS011;29213;50.770;7.298;2022-12-07T01:55:07;21.85;;;17.52;;
43620;SDS011;29213;50.770;7.298;2022-12-07T01:57:37;25.58;;;17.88;;
43620;SDS011;29213;50.770;7.298;2022-12-07T02:00:06;22.27;;;16.90;;
43620;SDS011;29213;50.770;7.298;2022-12-07T02:02:34;23.75;;;17.85;;
43620;SDS011;29213;50.770;7.298;2022-12-07T02:05:04;24.65;;;18.33;;
43620;SDS011;29213;50.770;7.298;2022-12-07T02:07:31;22.30;;;17.08;;
43620;SDS011;29213;50.770;7.298;2022-12-07T02:12:46;23.60;;;18.02;;
43620;SDS011;29213;50.770;7.298;2022-12-07T02:15:14;23.75;;;17.20;;
43620;SDS011;29213;50.770;7.298;2022-12-07T02:17:51;22.67;;;17.80;;
43620;SDS011;29213;50.770;7.298;2022-12-07T02:20:33;24.42;;;17.77;;
43620;SDS011;29213;50.770;7.298;2022-12-07T02:30:54;22.52;;;17.40;;
43620;SDS011;29213;50.770;7.298;2022-12-07T02:36:06;25.83;;;18.75;;
43620;SDS011;29213;50.770;7.298;2022-12-07T02:38:38;28.92;;;18.67;;
43620;SDS011;29213;50.770;7.298;2022-12-07T02:41:20;23.80;;;17.40;;
43620;SDS011;29213;50.770;7.298;2022-12-07T02:43:52;26.45;;;18.52;;
43620;SDS011;29213;50.770;7.298;2022-12-07T02:46:21;23.65;;;18.48;;
43620;SDS011;29213;50.770;7.298;2022-12-07T02:48:51;24.70;;;18.50;;
43620;SDS011;29213;50.770;7.298;2022-12-07T02:51:18;26.50;;;18.80;;
43620;SDS011;29213;50.770;7.298;2022-12-07T02:53:44;24.02;;;18.10;;
43620;SDS011;29213;50.770;7.298;2022-12-07T02:56:20;24.85;;;18.55;;
43620;SDS011;29213;50.770;7.298;2022-12-07T02:59:10;23.33;;;17.80;;
43620;SDS011;29213;50.770;7.298;2022-12-07T03:04:53;21.80;;;17.45;;
43620;SDS011;29213;50.770;7.298;2022-12-07T03:10:40;24.40;;;18.63;;
43620;SDS011;29213;50.770;7.298;2022-12-07T03:13:12;26.17;;;19.40;;
43620;SDS011;29213;50.770;7.298;2022-12-07T03:15:44;23.15;;;18.42;;
43620;SDS011;29213;50.770;7.298;2022-12-07T03:18:16;23.73;;;18.20;;
43620;SDS011;29213;50.770;7.298;2022-12-07T03:20:44;21.57;;;17.47;;
43620;SDS011;29213;50.770;7.298;2022-12-07T03:23:13;25.13;;;18.60;;
43620;SDS011;29213;50.770;7.298;2022-12-07T03:25:43;23.48;;;18.42;;
43620;SDS011;29213;50.770;7.298;2022-12-07T03:28:13;24.33;;;19.40;;
43620;SDS011;29213;50.770;7.298;2022-12-07T03:30:44;24.63;;;18.95;;
43620;SDS011;29213;50.770;7.298;2022-12-07T03:33:21;24.85;;;18.65;;
43620;SDS011;29213;50.770;7.298;2022-12-07T03:35:58;24.83;;;18.40;;
43620;SDS011;29213;50.770;7.298;2022-12-07T03:38:34;22.70;;;18.00;;
43620;SDS011;29213;50.770;7.298;2022-12-07T03:43:42;26.60;;;18.92;;
43620;SDS011;29213;50.770;7.298;2022-12-07T03:46:17;22.38;;;17.35;;
43620;SDS011;29213;50.770;7.298;2022-12-07T03:56:55;23.60;;;17.58;;
43620;SDS011;29213;50.770;7.298;2022-12-07T03:59:22;24.50;;;17.27;;
43620;SDS011;29213;50.770;7.298;2022-12-07T04:01:55;25.25;;;18.52;;
43620;SDS011;29213;50.770;7.298;2022-12-07T04:04:23;23.50;;;17.83;;
43620;SDS011;29213;50.770;7.298;2022-12-07T04:06:50;23.00;;;17.98;;
43620;SDS011;29213;50.770;7.298;2022-12-07T04:09:16;25.65;;;19.00;;
43620;SDS011;29213;50.770;7.298;2022-12-07T04:11:41;24.42;;;18.60;;
43620;SDS011;29213;50.770;7.298;2022-12-07T04:14:07;23.77;;;17.98;;
43620;SDS011;29213;50.770;7.298;2022-12-07T04:19:11;26.42;;;19.10;;
43620;SDS011;29213;50.770;7.298;2022-12-07T04:21:37;21.23;;;17.10;;
43620;SDS011;29213;50.770;7.298;2022-12-07T04:24:03;24.55;;;18.13;;
43620;SDS011;29213;50.770;7.298;2022-12-07T04:26:29;22.90;;;17.60;;
43620;SDS011;29213;50.770;7.298;2022-12-07T04:28:54;24.10;;;18.20;;
43620;SDS011;29213;50.770;7.298;2022-12-07T04:31:20;25.80;;;19.10;;
43620;SDS011;29213;50.770;7.298;2022-12-07T04:33:45;24.45;;;18.60;;
43620;SDS011;29213;50.770;7.298;2022-12-07T04:36:11;22.50;;;17.60;;
43620;SDS011;29213;50.770;7.298;2022-12-07T04:38:36;26.02;;;18.13;;
43620;SDS011;29213;50.770;7.298;2022-12-07T04:41:05;24.35;;;18.88;;
43620;SDS011;29213;50.770;7.298;2022-12-07T04:43:31;23.58;;;18.45;;
43620;SDS011;29213;50.770;7.298;2022-12-07T04:45:56;23.90;;;17.15;;
43620;SDS011;29213;50.770;7.298;2022-12-07T04:48:22;22.98;;;18.17;;
43620;SDS011;29213;50.770;7.298;2022-12-07T04:50:48;22.25;;;17.60;;
43620;SDS011;29213;50.770;7.298;2022-12-07T04:53:14;23.33;;;17.40;;
43620;SDS011;29213;50.770;7.298;2022-12-07T04:55:40;21.67;;;17.45;;
43620;SDS011;29213;50.770;7.298;2022-12-07T04:58:05;25.30;;;18.15;;
43620;SDS011;29213;50.770;7.298;2022-12-07T05:00:31;24.45;;;18.02;;
43620;SDS011;29213;50.770;7.298;2022-12-07T05:02:56;24.88;;;19.05;;
43620;SDS011;29213;50.770;7.298;2022-12-07T05:05:21;25.08;;;17.70;;
43620;SDS011;29213;50.770;7.298;2022-12-07T05:07:47;23.60;;;16.40;;
43620;SDS011;29213;50.770;7.298;2022-12-07T05:10:12;22.60;;;17.27;;
43620;SDS011;29213;50.770;7.298;2022-12-07T05:12:38;24.52;;;17.23;;
43620;SDS011;29213;50.770;7.298;2022-12-07T05:15:03;21.13;;;16.00;;
43620;SDS011;29213;50.770;7.298;2022-12-07T05:17:29;22.45;;;16.63;;
43620;SDS011;29213;50.770;7.298;2022-12-07T05:19:55;20.35;;;15.98;;
43620;SDS011;29213;50.770;7.298;2022-12-07T05:22:20;20.52;;;15.75;;
43620;SDS011;29213;50.770;7.298;2022-12-07T05:24:46;22.15;;;16.40;;
43620;SDS011;29213;50.770;7.298;2022-12-07T05:27:11;21.00;;;15.88;;
43620;SDS011;29213;50.770;7.298;2022-12-07T05:29:37;24.15;;;16.58;;
43620;SDS011;29213;50.770;7.298;2022-12-07T05:32:02;20.63;;;15.90;;
43620;SDS011;29213;50.770;7.298;2022-12-07T05:34:28;22.27;;;17.15;;
43620;SDS011;29213;50.770;7.298;2022-12-07T05:36:53;24.40;;;17.30;;
43620;SDS011;29213;50.770;7.298;2022-12-07T05:39:18;25.15;;;18.13;;
43620;SDS011;29213;50.770;7.298;2022-12-07T05:41:44;22.25;;;16.83;;
43620;SDS011;29213;50.770;7.298;2022-12-07T05:44:28;23.25;;;17.05;;
43620;SDS011;29213;50.770;7.298;2022-12-07T05:46:53;24.73;;;17.90;;
43620;SDS011;29213;50.770;7.298;2022-12-07T05:49:19;22.27;;;16.55;;
43620;SDS011;29213;50.770;7.298;2022-12-07T05:51:44;23.13;;;17.95;;
43620;SDS011;29213;50.770;7.298;2022-12-07T05:54:10;23.83;;;17.75;;
43620;SDS011;29213;50.770;7.298;2022-12-07T05:56:35;23.35;;;17.08;;
43620;SDS011;29213;50.770;7.298;2022-12-07T05:59:01;22.88;;;16.92;;
43620;SDS011;29213;50.770;7.298;2022-12-07T06:01:44;21.10;;;16.55;;
43620;SDS011;29213;50.770;7.298;2022-12-07T06:04:10;22.92;;;16.73;;
43620;SDS011;29213;50.770;7.298;2022-12-07T06:06:36;21.48;;;15.77;;
43620;SDS011;29213;50.770;7.298;2022-12-07T06:09:02;25.63;;;17.65;;
43620;SDS011;29213;50.770;7.298;2022-12-07T06:11:28;22.42;;;16.80;;
43620;SDS011;29213;50.770;7.298;2022-12-07T06:14:12;22.13;;;16.63;;
43620;SDS011;29213;50.770;7.298;2022-12-07T06:16:37;23.35;;;16.33;;
43620;SDS011;29213;50.770;7.298;2022-12-07T06:19:02;25.38;;;17.10;;
43620;SDS011;29213;50.770;7.298;2022-12-07T06:21:28;26.15;;;17.20;;
43620;SDS011;29213;50.770;7.298;2022-12-07T06:23:53;24.42;;;16.95;;
43620;SDS011;29213;50.770;7.298;2022-12-07T06:26:19;26.00;;;17.42;;
43620;SDS011;29213;50.770;7.298;2022-12-07T06:28:45;26.08;;;18.15;;
43620;SDS011;29213;50.770;7.298;2022-12-07T06:31:10;24.50;;;17.45;;
43620;SDS011;29213;50.770;7.298;2022-12-07T06:33:36;25.75;;;17.65;;
43620;SDS011;29213;50.770;7.298;2022-12-07T06:36:01;23.98;;;17.73;;
43620;SDS011;29213;50.770;7.298;2022-12-07T06:38:27;24.92;;;16.63;;
43620;SDS011;29213;50.770;7.298;2022-12-07T06:40:52;25.70;;;17.73;;
43620;SDS011;29213;50.770;7.298;2022-12-07T06:43:18;21.85;;;15.52;;
43620;SDS011;29213;50.770;7.298;2022-12-07T06:45:43;23.27;;;17.10;;
43620;SDS011;29213;50.770;7.298;2022-12-07T06:48:09;25.23;;;17.52;;
43620;SDS011;29213;50.770;7.298;2022-12-07T06:50:34;19.38;;;14.45;;
43620;SDS011;29213;50.770;7.298;2022-12-07T06:52:59;18.75;;;14.13;;
43620;SDS011;29213;50.770;7.298;2022-12-07T06:55:25;20.08;;;13.63;;
43620;SDS011;29213;50.770;7.298;2022-12-07T06:57:50;17.08;;;12.45;;
43620;SDS011;29213;50.770;7.298;2022-12-07T07:00:16;17.27;;;12.27;;
43620;SDS011;29213;50.770;7.298;2022-12-07T07:02:41;16.48;;;12.63;;
43620;SDS011;29213;50.770;7.298;2022-12-07T07:05:07;18.17;;;12.82;;
43620;SDS011;29213;50.770;7.298;2022-12-07T07:07:32;16.67;;;12.60;;
43620;SDS011;29213;50.770;7.298;2022-12-07T07:09:58;17.92;;;11.98;;
43620;SDS011;29213;50.770;7.298;2022-12-07T07:12:23;19.85;;;13.98;;
43620;SDS011;29213;50.770;7.298;2022-12-07T07:14:48;18.52;;;13.05;;
43620;SDS011;29213;50.770;7.298;2022-12-07T07:17:14;18.25;;;12.98;;
43620;SDS011;29213;50.770;7.298;2022-12-07T07:19:40;19.23;;;13.57;;
43620;SDS011;29213;50.770;7.298;2022-12-07T07:22:06;18.75;;;13.63;;
43620;SDS011;29213;50.770;7.298;2022-12-07T07:24:31;20.30;;;13.88;;
43620;SDS011;29213;50.770;7.298;2022-12-07T07:26:57;19.83;;;13.57;;
43620;SDS011;29213;50.770;7.298;2022-12-07T07:29:22;18.65;;;13.77;;
43620;SDS011;29213;50.770;7.298;2022-12-07T07:31:47;21.10;;;14.25;;
43620;SDS011;29213;50.770;7.298;2022-12-07T07:34:13;18.85;;;13.90;;
43620;SDS011;29213;50.770;7.298;2022-12-07T07:36:38;20.38;;;14.05;;
43620;SDS011;29213;50.770;7.298;2022-12-07T07:39:04;19.58;;;14.80;;
43620;SDS011;29213;50.770;7.298;2022-12-07T07:41:30;20.30;;;14.10;;
43620;SDS011;29213;50.770;7.298;2022-12-07T07:43:55;20.67;;;14.57;;
43620;SDS011;29213;50.770;7.298;2022-12-07T07:46:20;19.45;;;14.13;;
43620;SDS011;29213;50.770;7.298;2022-12-07T07:48:46;19.73;;;14.32;;
43620;SDS011;29213;50.770;7.298;2022-12-07T07:51:11;18.80;;;13.85;;
43620;SDS011;29213;50.770;7.298;2022-12-07T07:53:36;22.13;;;15.38;;
43620;SDS011;29213;50.770;7.298;2022-12-07T07:56:02;23.60;;;16.33;;
43620;SDS011;29213;50.770;7.298;2022-12-07T07:58:28;21.67;;;14.35;;
43620;SDS011;29213;50.770;7.298;2022-12-07T08:00:53;20.55;;;16.42;;
43620;SDS011;29213;50.770;7.298;2022-12-07T08:03:19;25.27;;;18.08;;
43620;SDS011;29213;50.770;7.298;2022-12-07T08:05:45;24.40;;;17.55;;
43620;SDS011;29213;50.770;7.298;2022-12-07T08:08:10;23.92;;;17.52;;
43620;SDS011;29213;50.770;7.298;2022-12-07T08:10:36;20.95;;;16.13;;
43620;SDS011;29213;50.770;7.298;2022-12-07T08:13:02;23.60;;;16.58;;
43620;SDS011;29213;50.770;7.298;2022-12-07T08:15:39;22.63;;;16.35;;
43620;SDS011;29213;50.770;7.298;2022-12-07T08:18:06;21.00;;;15.73;;
43620;SDS011;29213;50.770;7.298;2022-12-07T08:20:32;23.88;;;15.73;;
43620;SDS011;29213;50.770;7.298;2022-12-07T08:22:59;22.80;;;15.13;;
43620;SDS011;29213;50.770;7.298;2022-12-07T08:25:24;21.95;;;15.30;;
43620;SDS011;29213;50.770;7.298;2022-12-07T08:27:51;22.10;;;14.98;;
43620;SDS011;29213;50.770;7.298;2022-12-07T08:30:16;20.45;;;14.75;;
43620;SDS011;29213;50.770;7.298;2022-12-07T08:32:44;20.23;;;14.88;;
43620;SDS011;29213;50.770;7.298;2022-12-07T08:35:10;23.50;;;15.63;;
43620;SDS011;29213;50.770;7.298;2022-12-07T08:37:36;9.32;;;6.63;;
43620;SDS011;29213;50.770;7.298;2022-12-07T08:40:02;13.13;;;8.70;;
43620;SDS011;29213;50.770;7.298;2022-12-07T08:42:29;19.42;;;14.18;;
43620;SDS011;29213;50.770;7.298;2022-12-07T08:45:03;21.35;;;15.68;;
43620;SDS011;29213;50.770;7.298;2022-12-07T08:47:33;20.55;;;14.65;;
43620;SDS011;29213;50.770;7.298;2022-12-07T08:50:02;22.20;;;14.87;;
43620;SDS011;29213;50.770;7.298;2022-12-07T08:52:29;21.05;;;15.77;;
43620;SDS011;29213;50.770;7.298;2022-12-07T08:54:56;19.20;;;14.32;;
43620;SDS011;29213;50.770;7.298;2022-12-07T08:57:24;17.98;;;13.65;;
43620;SDS011;29213;50.770;7.298;2022-12-07T08:59:51;19.50;;;14.18;;
43620;SDS011;29213;50.770;7.298;2022-12-07T09:02:17;18.80;;;13.40;;
43620;SDS011;29213;50.770;7.298;2022-12-07T09:04:42;21.38;;;14.38;;
43620;SDS011;29213;50.770;7.298;2022-12-07T09:07:07;21.00;;;14.23;;
43620;SDS011;29213;50.770;7.298;2022-12-07T09:09:34;19.13;;;13.90;;
43620;SDS011;29213;50.770;7.298;2022-12-07T09:11:59;19.40;;;14.15;;
43620;SDS011;29213;50.770;7.298;2022-12-07T09:14:25;23.05;;;17.02;;
43620;SDS011;29213;50.770;7.298;2022-12-07T09:16:50;21.30;;;15.15;;
43620;SDS011;29213;50.770;7.298;2022-12-07T09:19:16;17.13;;;12.98;;
43620;SDS011;29213;50.770;7.298;2022-12-07T09:21:42;21.73;;;14.23;;
43620;SDS011;29213;50.770;7.298;2022-12-07T09:24:07;20.33;;;14.45;;
43620;SDS011;29213;50.770;7.298;2022-12-07T09:26:34;18.25;;;13.27;;
43620;SDS011;29213;50.770;7.298;2022-12-07T09:29:01;20.13;;;14.40;;
43620;SDS011;29213;50.770;7.298;2022-12-07T09:31:27;19.50;;;14.07;;
43620;SDS011;29213;50.770;7.298;2022-12-07T09:33:57;18.88;;;13.40;;
43620;SDS011;29213;50.770;7.298;2022-12-07T09:36:24;19.83;;;13.10;;
43620;SDS011;29213;50.770;7.298;2022-12-07T09:38:50;20.92;;;14.77;;
43620;SDS011;29213;50.770;7.298;2022-12-07T09:41:16;19.60;;;13.52;;
43620;SDS011;29213;50.770;7.298;2022-12-07T09:43:41;20.65;;;15.00;;
43620;SDS011;29213;50.770;7.298;2022-12-07T09:46:08;20.25;;;14.05;;
43620;SDS011;29213;50.770;7.298;2022-12-07T09:48:44;18.88;;;12.95;;
43620;SDS011;29213;50.770;7.298;2022-12-07T09:51:15;21.52;;;13.90;;
43620;SDS011;29213;50.770;7.298;2022-12-07T09:53:43;18.98;;;13.73;;
43620;SDS011;29213;50.770;7.298;2022-12-07T09:56:11;18.77;;;13.10;;
43620;SDS011;29213;50.770;7.298;2022-12-07T09:58:39;19.30;;;13.50;;
43620;SDS011;29213;50.770;7.298;2022-12-07T10:03:48;20.80;;;13.55;;
43620;SDS011;29213;50.770;7.298;2022-12-07T10:06:16;17.90;;;13.25;;
43620;SDS011;29213;50.770;7.298;2022-12-07T10:08:42;19.67;;;13.48;;
43620;SDS011;29213;50.770;7.298;2022-12-07T10:11:09;19.05;;;13.25;;
43620;SDS011;29213;50.770;7.298;2022-12-07T10:13:37;19.45;;;12.93;;
43620;SDS011;29213;50.770;7.298;2022-12-07T10:16:03;20.33;;;13.93;;
43620;SDS011;29213;50.770;7.298;2022-12-07T10:18:38;21.98;;;14.40;;
43620;SDS011;29213;50.770;7.298;2022-12-07T10:21:10;20.42;;;13.85;;
43620;SDS011;29213;50.770;7.298;2022-12-07T10:26:53;20.00;;;13.52;;
43620;SDS011;29213;50.770;7.298;2022-12-07T10:32:00;20.75;;;13.90;;
43620;SDS011;29213;50.770;7.298;2022-12-07T10:34:31;18.52;;;12.90;;
43620;SDS011;29213;50.770;7.298;2022-12-07T10:37:16;20.30;;;13.13;;
43620;SDS011;29213;50.770;7.298;2022-12-07T10:39:53;21.65;;;14.48;;
43620;SDS011;29213;50.770;7.298;2022-12-07T10:55:54;20.08;;;13.10;;
43620;SDS011;29213;50.770;7.298;2022-12-07T11:02:02;19.90;;;13.80;;
43620;SDS011;29213;50.770;7.298;2022-12-07T11:07:53;20.40;;;13.05;;
43620;SDS011;29213;50.770;7.298;2022-12-07T11:16:24;18.13;;;12.23;;
43620;SDS011;29213;50.770;7.298;2022-12-07T11:21:45;15.75;;;10.75;;
43620;SDS011;29213;50.770;7.298;2022-12-07T11:25:09;18.10;;;11.70;;
43620;SDS011;29213;50.770;7.298;2022-12-07T11:27:40;18.40;;;12.02;;
43620;SDS011;29213;50.770;7.298;2022-12-07T11:30:18;16.52;;;10.98;;
43620;SDS011;29213;50.770;7.298;2022-12-07T11:38:35;16.20;;;11.60;;
43620;SDS011;29213;50.770;7.298;2022-12-07T11:41:23;18.88;;;11.85;;
43620;SDS011;29213;50.770;7.298;2022-12-07T11:43:56;17.65;;;11.77;;
43620;SDS011;29213;50.770;7.298;2022-12-07T11:46:35;18.77;;;10.73;;
43620;SDS011;29213;50.770;7.298;2022-12-07T11:49:10;15.93;;;11.00;;
43620;SDS011;29213;50.770;7.298;2022-12-07T11:51:38;15.48;;;10.57;;
43620;SDS011;29213;50.770;7.298;2022-12-07T11:54:12;16.27;;;10.10;;
43620;SDS011;29213;50.770;7.298;2022-12-07T11:56:43;14.73;;;10.38;;
43620;SDS011;29213;50.770;7.298;2022-12-07T11:59:12;12.82;;;8.80;;
43620;SDS011;29213;50.770;7.298;2022-12-07T12:01:52;14.88;;;9.15;;
43620;SDS011;29213;50.770;7.298;2022-12-07T12:07:21;14.55;;;9.10;;
43620;SDS011;29213;50.770;7.298;2022-12-07T12:09:58;15.07;;;9.43;;
43620;SDS011;29213;50.770;7.298;2022-12-07T12:15:22;14.77;;;9.55;;
43620;SDS011;29213;50.770;7.298;2022-12-07T12:18:12;12.68;;;8.60;;
43620;SDS011;29213;50.770;7.298;2022-12-07T12:20:45;13.13;;;8.65;;
43620;SDS011;29213;50.770;7.298;2022-12-07T12:23:20;12.88;;;7.78;;
43620;SDS011;29213;50.770;7.298;2022-12-07T12:25:57;13.30;;;7.28;;
43620;SDS011;29213;50.770;7.298;2022-12-07T12:33:56;12.40;;;6.97;;
43620;SDS011;29213;50.770;7.298;2022-12-07T12:44:08;11.52;;;3.83;;
43620;SDS011;29213;50.770;7.298;2022-12-07T12:47:38;8.38;;;3.30;;
43620;SDS011;29213;50.770;7.298;2022-12-07T12:50:19;10.90;;;5.90;;
43620;SDS011;29213;50.770;7.298;2022-12-07T12:56:02;37.35;;;20.08;;
43620;SDS011;29213;50.770;7.298;2022-12-07T13:01:56;25.35;;;15.07;;
43620;SDS011;29213;50.770;7.298;2022-12-07T13:12:59;33.40;;;18.92;;
43620;SDS011;29213;50.770;7.298;2022-12-07T13:18:04;17.38;;;11.23;;
43620;SDS011;29213;50.770;7.298;2022-12-07T13:20:45;18.52;;;9.70;;
43620;SDS011;29213;50.770;7.298;2022-12-07T13:23:13;13.95;;;8.48;;
43620;SDS011;29213;50.770;7.298;2022-12-07T13:28:36;18.52;;;10.35;;
43620;SDS011;29213;50.770;7.298;2022-12-07T13:31:16;17.52;;;11.73;;
43620;SDS011;29213;50.770;7.298;2022-12-07T13:33:53;22.20;;;14.23;;
43620;SDS011;29213;50.770;7.298;2022-12-07T13:36:22;16.58;;;11.20;;
43620;SDS011;29213;50.770;7.298;2022-12-07T13:38:51;15.45;;;10.60;;
43620;SDS011;29213;50.770;7.298;2022-12-07T13:41:24;13.70;;;9.02;;
43620;SDS011;29213;50.770;7.298;2022-12-07T13:46:34;11.68;;;7.20;;
43620;SDS011;29213;50.770;7.298;2022-12-07T13:49:18;14.13;;;8.00;;
43620;SDS011;29213;50.770;7.298;2022-12-07T13:52:17;12.75;;;7.45;;
43620;SDS011;29213;50.770;7.298;2022-12-07T13:54:49;13.45;;;7.95;;
43620;SDS011;29213;50.770;7.298;2022-12-07T13:57:22;12.38;;;7.82;;
43620;SDS011;29213;50.770;7.298;2022-12-07T13:59:50;12.82;;;7.50;;
43620;SDS011;29213;50.770;7.298;2022-12-07T14:02:20;11.35;;;7.20;;
43620;SDS011;29213;50.770;7.298;2022-12-07T14:04:51;13.50;;;7.88;;
43620;SDS011;29213;50.770;7.298;2022-12-07T14:07:24;11.40;;;7.07;;
43620;SDS011;29213;50.770;7.298;2022-12-07T14:12:49;11.68;;;7.35;;
43620;SDS011;29213;50.770;7.298;2022-12-07T14:15:22;11.57;;;7.28;;
43620;SDS011;29213;50.770;7.298;2022-12-07T14:17:51;14.80;;;7.38;;
43620;SDS011;29213;50.770;7.298;2022-12-07T14:20:28;12.30;;;7.15;;
43620;SDS011;29213;50.770;7.298;2022-12-07T14:25:25;10.48;;;6.20;;
43620;SDS011;29213;50.770;7.298;2022-12-07T14:27:55;12.15;;;6.63;;
43620;SDS011;29213;50.770;7.298;2022-12-07T14:30:27;12.43;;;7.65;;
43620;SDS011;29213;50.770;7.298;2022-12-07T14:32:57;12.20;;;7.35;;
43620;SDS011;29213;50.770;7.298;2022-12-07T14:35:25;10.32;;;6.82;;
43620;SDS011;29213;50.770;7.298;2022-12-07T14:37:51;12.50;;;7.25;;
43620;SDS011;29213;50.770;7.298;2022-12-07T14:40:23;10.50;;;6.75;;
43620;SDS011;29213;50.770;7.298;2022-12-07T14:42:53;10.88;;;7.50;;
43620;SDS011;29213;50.770;7.298;2022-12-07T14:45:22;16.42;;;7.13;;
43620;SDS011;29213;50.770;7.298;2022-12-07T14:47:48;14.38;;;7.53;;
43620;SDS011;29213;50.770;7.298;2022-12-07T14:50:15;11.55;;;6.78;;
43620;SDS011;29213;50.770;7.298;2022-12-07T14:52:43;11.82;;;6.88;;
43620;SDS011;29213;50.770;7.298;2022-12-07T14:55:23;10.40;;;6.38;;
43620;SDS011;29213;50.770;7.298;2022-12-07T14:57:51;11.88;;;6.53;;
43620;SDS011;29213;50.770;7.298;2022-12-07T15:00:16;12.52;;;6.50;;
43620;SDS011;29213;50.770;7.298;2022-12-07T15:02:44;10.82;;;5.55;;
43620;SDS011;29213;50.770;7.298;2022-12-07T15:05:10;7.60;;;4.95;;
43620;SDS011;29213;50.770;7.298;2022-12-07T15:07:36;10.10;;;5.00;;
43620;SDS011;29213;50.770;7.298;2022-12-07T15:10:02;8.82;;;5.07;;
43620;SDS011;29213;50.770;7.298;2022-12-07T15:12:28;7.50;;;4.75;;
43620;SDS011;29213;50.770;7.298;2022-12-07T15:14:53;8.43;;;4.70;;
43620;SDS011;29213;50.770;7.298;2022-12-07T15:17:19;10.23;;;5.40;;
43620;SDS011;29213;50.770;7.298;2022-12-07T15:19:44;11.20;;;5.45;;
43620;SDS011;29213;50.770;7.298;2022-12-07T15:22:10;8.13;;;5.00;;
43620;SDS011;29213;50.770;7.298;2022-12-07T15:24:36;9.35;;;4.95;;
43620;SDS011;29213;50.770;7.298;2022-12-07T15:27:02;9.80;;;5.43;;
43620;SDS011;29213;50.770;7.298;2022-12-07T15:29:27;12.18;;;8.02;;
43620;SDS011;29213;50.770;7.298;2022-12-07T15:31:53;9.77;;;7.18;;
43620;SDS011;29213;50.770;7.298;2022-12-07T15:34:18;8.95;;;5.57;;
43620;SDS011;29213;50.770;7.298;2022-12-07T15:36:44;10.38;;;5.22;;
43620;SDS011;29213;50.770;7.298;2022-12-07T15:39:09;11.55;;;5.55;;
43620;SDS011;29213;50.770;7.298;2022-12-07T15:41:35;9.07;;;4.97;;
43620;SDS011;29213;50.770;7.298;2022-12-07T15:44:01;9.10;;;5.28;;
43620;SDS011;29213;50.770;7.298;2022-12-07T15:46:45;10.77;;;5.28;;
43620;SDS011;29213;50.770;7.298;2022-12-07T15:49:11;7.57;;;4.93;;
43620;SDS011;29213;50.770;7.298;2022-12-07T15:51:39;8.18;;;4.78;;
43620;SDS011;29213;50.770;7.298;2022-12-07T15:54:05;10.02;;;5.68;;
43620;SDS011;29213;50.770;7.298;2022-12-07T15:56:30;10.00;;;5.90;;
43620;SDS011;29213;50.770;7.298;2022-12-07T15:58:57;8.80;;;5.28;;
43620;SDS011;29213;50.770;7.298;2022-12-07T16:01:22;8.40;;;4.35;;
43620;SDS011;29213;50.770;7.298;2022-12-07T16:03:48;8.07;;;4.70;;
43620;SDS011;29213;50.770;7.298;2022-12-07T16:06:16;7.85;;;5.18;;
43620;SDS011;29213;50.770;7.298;2022-12-07T16:08:43;11.33;;;5.43;;
43620;SDS011;29213;50.770;7.298;2022-12-07T16:11:09;7.70;;;5.05;;
43620;SDS011;29213;50.770;7.298;2022-12-07T16:13:35;8.02;;;5.00;;
43620;SDS011;29213;50.770;7.298;2022-12-07T16:16:07;8.25;;;5.03;;
43620;SDS011;29213;50.770;7.298;2022-12-07T16:18:35;7.75;;;4.88;;
43620;SDS011;29213;50.770;7.298;2022-12-07T16:21:00;11.38;;;6.00;;
43620;SDS011;29213;50.770;7.298;2022-12-07T16:23:26;10.38;;;6.18;;
43620;SDS011;29213;50.770;7.298;2022-12-07T16:25:52;11.00;;;6.70;;
43620;SDS011;29213;50.770;7.298;2022-12-07T16:28:17;9.13;;;5.80;;
43620;SDS011;29213;50.770;7.298;2022-12-07T16:30:43;10.57;;;6.07;;
43620;SDS011;29213;50.770;7.298;2022-12-07T16:33:08;15.35;;;8.38;;
43620;SDS011;29213;50.770;7.298;2022-12-07T16:35:33;13.30;;;8.00;;
43620;SDS011;29213;50.770;7.298;2022-12-07T16:37:59;13.93;;;8.30;;
43620;SDS011;29213;50.770;7.298;2022-12-07T16:40:24;14.43;;;8.93;;
43620;SDS011;29213;50.770;7.298;2022-12-07T16:42:50;15.13;;;8.82;;